Terminal Aerodrome Forecast
Issued by NWS Pittsburgh, PA

Home | Current Version | Previous Version | Text Only | Print | Product List | Glossary On
Versions: 1 2 3 4 5 6 7 8 9 10 11 12 13 14 15 16 17 18 19 20 21 22 23 24 25 26 27 28
000
FTUS41 KPBZ 121700
TAFPIT
TAF
KPIT 121730Z 1218/1324 23007KT P6SM SCT050 BKN200
     FM130400 20006KT P6SM -SHRA BKN040
     FM131500 21008G15KT P6SM -RA VCTS BKN050CB
     FM131800 21010G20KT 5SM TSRA SCT030 BKN050CB=

USA.gov is the U.S. government's official web portal to all federal, state and local government web resources and services.